This is the latest recevied weather packets stored in our database for station/object GW1479. If no packets are shown the sender has not sent any weather packets the latest 10 day(s).
| Time | Temp. | Humidity | Pressure | Rain* | Wind** | Luminosity | Snow |
|---|---|---|---|---|---|---|---|
| 1777898905 | 16.67° C | 66% | 1012.5 hPa | 0 mm | - | - | - |
| 1777896405 | 12.78° C | 90% | 1012.5 hPa | 0 mm | - | - | - |
| 1777895324 | 10° C | 98% | 1012.8 hPa | 0 mm | - | - | - |
| 1777892430 | 8.89° C | 97% | 1012.8 hPa | 0 mm | - | - | - |
| 1777888488 | 8.33° C | 98% | 1013.2 hPa | 0 mm | - | - | - |
| 1777888097 | 8.33° C | 98% | 1013.2 hPa | 0 mm | - | - | - |
| 1777885574 | 8.89° C | 95% | 1013.8 hPa | 0 mm | - | - | - |
| 1777884142 | 8.33° C | 96% | 1013.5 hPa | 0 mm | - | - | - |
| 1777882695 | 8.33° C | 95% | 1013.8 hPa | 0 mm | - | - | - |
| 1777882336 | 7.78° C | 94% | 1013.8 hPa | 0 mm | - | - | - |
| 1777880176 | 8.33° C | 92% | 1013.8 hPa | 0 mm | - | - | - |
| 1777873000 | 7.78° C | 88% | 1014.2 hPa | 0 mm | - | - | - |
| 1777868671 | 7.78° C | 87% | 1014.5 hPa | 0 mm | - | - | - |
| 1777867605 | 7.78° C | 85% | 1014.5 hPa | 0 mm | - | - | - |
| 1777865773 | 7.22° C | 85% | 1014.5 hPa | 0 mm | - | - | - |
| 1777865436 | 7.22° C | 85% | 1014.5 hPa | 0 mm | - | - | - |
| 1777863254 | 6.67° C | 87% | 1014.5 hPa | 0 mm | - | - | - |
| 1777862540 | 6.67° C | 85% | 1014.5 hPa | 0 mm | - | - | - |
| 1777861827 | 6.67° C | 85% | 1014.5 hPa | 0 mm | - | - | - |
| 1777861114 | 7.78° C | 83% | 1014.5 hPa | 0 mm | - | - | - |
| 1777860380 | 8.33° C | 81% | 1014.5 hPa | 0 mm | - | - | - |
| 1777857134 | 10° C | 70% | 1014.5 hPa | 0 mm | - | - | - |
| 1777856079 | 10.56° C | 68% | 1014.2 hPa | 0 mm | - | - | - |
| 1777849972 | 15.56° C | 47% | 1014.2 hPa | 0 mm | - | - | - |
| 1777848143 | 16.67° C | 44% | 1014.2 hPa | 0 mm | - | - | - |
* Rain since midnight (hover to see other rain measurements)
** Current wind speed in m/s (hover to see current wind gust speed)